Bay View, Michigan
Current Conditions -  °F | °C
As of 6:15 PM on Saturday 25 Oct 2014 (Local Time) from KMGN Reporting Station
Clear Clear  
Wind Chill: 55°   Ceiling: Unl
Heat Index: 55°   Visibility: 10mi
Dew Point: 41°   Wind: 8mph
Humidity: 59%   Direction: 290°WNW
Pressure: 29.72"   Gusts: NA
Location:  45.3433°N, 84.8827°W
Report Text: KMGN 252215Z AUTO 29007KT 10SM CLR 12/05 A2972 RMK AO2 T01290050
Loading
Personal Weather Stations






























Interactive Weather Map
Tropical Storm Tracking
New forecast layout! Learn more

10-Day Weather Forecast

Advertisements
Track Severe Weather on mobile